Time;durP1;ratioP1;P1;durP2;ratioP2;P2;SDS_P1;SDS_P2;PMS_P1;PMS_P2;Temp;Humidity;BMP_temperature;BMP_pressure;BME280_temperature;BME280_humidity;BME280_pressure;Samples;Min_cycle;Max_cycle;Signal;HPM_P1;HPM_P2
2020/12/24 00:02:22;;;;;;;5.90;1.50;;;10.20;99.90;;;;;;3619998;39;20274;-75
2020/12/24 00:04:48;;;;;;;4.60;1.85;;;10.10;99.90;;;;;;3620117;39;20247;-75
2020/12/24 00:07:15;;;;;;;6.53;1.88;;;10.00;99.90;;;;;;3626898;39;20270;-76
2020/12/24 00:09:44;;;;;;;1.83;1.70;;;10.00;99.90;;;;;;3619880;39;20260;-76
2020/12/24 00:12:11;;;;;;;6.93;1.33;;;10.00;99.90;;;;;;3622926;39;20273;-76
2020/12/24 00:14:38;;;;;;;12.75;1.75;;;9.90;99.90;;;;;;3626294;39;20297;-76
2020/12/24 00:17:05;;;;;;;8.63;1.90;;;9.90;99.90;;;;;;3624330;39;20411;-76
2020/12/24 00:19:31;;;;;;;7.07;1.70;;;9.80;99.90;;;;;;3627579;39;20272;-76
2020/12/24 00:21:58;;;;;;;8.50;1.88;;;9.80;99.90;;;;;;3627502;39;20263;-76
2020/12/24 00:24:24;;;;;;;6.65;1.63;;;9.70;99.90;;;;;;3621368;39;20286;-75
2020/12/24 00:26:51;;;;;;;8.13;1.77;;;9.70;99.90;;;;;;3625691;39;20299;-76
2020/12/24 00:29:17;;;;;;;5.85;2.05;;;9.70;99.90;;;;;;3622007;39;20313;-75
2020/12/24 00:31:45;;;;;;;3.33;1.25;;;9.70;99.90;;;;;;3622091;39;20251;-75
2020/12/24 00:34:11;;;;;;;7.43;2.28;;;9.60;99.90;;;;;;3622651;39;20290;-75
2020/12/24 00:36:38;;;;;;;8.98;1.98;;;9.60;99.90;;;;;;3624018;39;20336;-75
2020/12/24 00:39:05;;;;;;;9.98;1.75;;;9.60;99.90;;;;;;3622583;39;20255;-75
2020/12/24 00:41:31;;;;;;;11.35;1.92;;;9.60;99.90;;;;;;3621367;39;20251;-75
2020/12/24 00:43:58;;;;;;;8.23;1.92;;;9.50;99.90;;;;;;3621360;39;20368;-75
2020/12/24 00:46:24;;;;;;;6.65;1.30;;;9.50;99.90;;;;;;3624761;39;20244;-75
2020/12/24 00:48:51;;;;;;;6.80;2.05;;;9.40;99.90;;;;;;3625968;39;20275;-75
2020/12/24 00:51:18;;;;;;;4.93;1.70;;;9.40;99.90;;;;;;3622700;39;20263;-75
2020/12/24 00:53:44;;;;;;;3.53;1.77;;;9.40;99.90;;;;;;3626037;39;20303;-75
2020/12/24 00:56:11;;;;;;;5.97;2.10;;;9.50;99.90;;;;;;3621423;39;20289;-75
2020/12/24 00:58:37;;;;;;;9.43;1.70;;;9.40;99.90;;;;;;3621401;39;20392;-75
2020/12/24 01:01:04;;;;;;;5.95;1.75;;;9.40;99.90;;;;;;3621979;39;20351;-75
2020/12/24 01:03:31;;;;;;;5.53;2.10;;;9.40;99.90;;;;;;3625031;39;20288;-75
2020/12/24 01:05:58;;;;;;;6.45;1.85;;;9.40;99.90;;;;;;3621351;39;20323;-75
2020/12/24 01:08:25;;;;;;;6.90;2.97;;;9.40;99.90;;;;;;3624159;39;20274;-75
2020/12/24 01:10:53;;;;;;;6.35;1.90;;;9.40;99.90;;;;;;3621352;39;20259;-76
2020/12/24 01:13:19;;;;;;;5.97;1.38;;;9.40;99.90;;;;;;3621341;39;20275;-75
2020/12/24 01:15:45;;;;;;;13.73;1.52;;;9.40;99.90;;;;;;3621262;39;20252;-75
2020/12/24 01:18:12;;;;;;;6.80;1.48;;;9.30;99.90;;;;;;3621710;39;20677;-75
2020/12/24 01:20:38;;;;;;;7.30;1.40;;;9.30;99.90;;;;;;3621065;39;20260;-76
2020/12/24 01:23:06;;;;;;;6.88;1.48;;;9.30;99.90;;;;;;3625810;39;20285;-76
2020/12/24 01:25:32;;;;;;;9.70;1.92;;;9.30;99.90;;;;;;3622760;39;20799;-76
2020/12/24 01:27:59;;;;;;;8.23;1.50;;;9.30;99.90;;;;;;3624156;39;20289;-76
2020/12/24 01:30:26;;;;;;;11.85;1.80;;;9.20;99.90;;;;;;3622989;39;20294;-76
2020/12/24 01:32:53;;;;;;;10.18;1.88;;;9.20;99.90;;;;;;3621172;39;20256;-76
2020/12/24 01:35:19;;;;;;;7.45;1.75;;;9.20;99.90;;;;;;3632546;31;20800;-76
2020/12/24 01:37:46;;;;;;;7.07;1.48;;;9.20;99.90;;;;;;3620835;39;20244;-75
2020/12/24 01:40:13;;;;;;;14.10;1.75;;;9.10;99.90;;;;;;3624353;39;20260;-75
2020/12/24 01:42:40;;;;;;;12.40;2.20;;;9.10;99.90;;;;;;3623088;39;20256;-75
2020/12/24 01:45:07;;;;;;;8.95;1.50;;;9.10;99.90;;;;;;3621374;39;20387;-75
2020/12/24 01:47:33;;;;;;;4.55;1.85;;;9.00;99.90;;;;;;3623109;39;20252;-75
2020/12/24 01:50:00;;;;;;;6.22;1.63;;;9.00;99.90;;;;;;3627049;39;20281;-75
2020/12/24 01:52:33;;;;;;;3.88;1.33;;;9.10;99.90;;;;;;3621694;39;20264;-75
2020/12/24 01:55:01;;;;;;;6.60;1.73;;;9.10;99.90;;;;;;3620952;39;20283;-74
2020/12/24 01:57:28;;;;;;;8.02;1.75;;;9.00;99.90;;;;;;3634077;31;20360;-75
2020/12/24 01:59:56;;;;;;;3.47;1.95;;;9.10;99.90;;;;;;3620165;39;20658;-75
2020/12/24 02:02:23;;;;;;;8.85;2.17;;;9.00;99.90;;;;;;3620783;39;20347;-75
2020/12/24 02:04:50;;;;;;;10.02;2.22;;;9.00;99.90;;;;;;3621475;39;20263;-75
2020/12/24 02:07:17;;;;;;;9.90;1.52;;;9.00;99.90;;;;;;3621400;39;20252;-75
2020/12/24 02:09:48;;;;;;;5.95;1.88;;;9.00;99.90;;;;;;3623796;31;20311;-75
2020/12/24 02:12:15;;;;;;;15.68;1.52;;;9.10;99.90;;;;;;3621553;39;20407;-75
2020/12/24 02:14:43;;;;;;;14.35;1.50;;;9.20;99.90;;;;;;3629324;39;20873;-75
2020/12/24 02:17:10;;;;;;;23.60;4.05;;;9.20;99.90;;;;;;3624679;39;20243;-76
2020/12/24 02:19:40;;;;;;;4.30;1.50;;;9.20;99.90;;;;;;3620662;39;20251;-75
2020/12/24 02:22:08;;;;;;;6.75;1.83;;;9.30;99.90;;;;;;3620621;39;20240;-75
2020/12/24 02:24:36;;;;;;;9.45;1.63;;;9.30;99.90;;;;;;3622308;39;20244;-75
2020/12/24 02:27:03;;;;;;;7.63;2.15;;;9.30;99.90;;;;;;3620781;39;20307;-75
2020/12/24 02:29:29;;;;;;;10.02;2.08;;;9.30;99.90;;;;;;3620461;39;20256;-75
2020/12/24 02:31:56;;;;;;;10.18;2.25;;;9.30;99.90;;;;;;3619989;39;20286;-75
2020/12/24 02:34:23;;;;;;;6.53;1.80;;;9.40;99.90;;;;;;3620150;39;20296;-75
2020/12/24 02:36:49;;;;;;;9.55;2.08;;;9.40;99.90;;;;;;3623442;39;20267;-75
2020/12/24 02:39:17;;;;;;;6.45;2.45;;;9.40;99.90;;;;;;3620096;39;20819;-75
2020/12/24 02:41:43;;;;;;;10.65;1.63;;;9.40;99.90;;;;;;3624791;39;20402;-75
2020/12/24 02:44:10;;;;;;;7.28;1.90;;;9.40;99.90;;;;;;3620661;39;20275;-75
2020/12/24 02:46:39;;;;;;;3.75;1.40;;;9.50;99.90;;;;;;3620926;39;20267;-75
2020/12/24 02:49:06;;;;;;;9.43;2.47;;;9.40;99.90;;;;;;3620071;39;20252;-75
2020/12/24 02:51:33;;;;;;;11.35;2.00;;;9.50;99.90;;;;;;3620094;39;20729;-75
2020/12/24 02:53:59;;;;;;;5.57;1.58;;;9.40;99.90;;;;;;3620158;39;20268;-75
2020/12/24 02:56:27;;;;;;;7.63;1.75;;;9.40;99.90;;;;;;3620221;39;20268;-75
2020/12/24 02:58:53;;;;;;;5.80;1.50;;;9.40;99.90;;;;;;3619715;39;20313;-75
2020/12/24 03:01:20;;;;;;;5.20;1.70;;;9.40;99.90;;;;;;3620831;39;20232;-75
2020/12/24 03:03:46;;;;;;;5.65;2.00;;;9.30;99.90;;;;;;3620488;39;20275;-74
2020/12/24 03:06:12;;;;;;;8.13;2.20;;;9.30;99.90;;;;;;3620261;39;20363;-75
2020/12/24 03:08:39;;;;;;;8.55;2.42;;;9.30;99.90;;;;;;3619927;39;20267;-75
2020/12/24 03:11:05;;;;;;;10.20;2.70;;;9.30;99.90;;;;;;3620221;39;20316;-75
2020/12/24 03:13:33;;;;;;;9.75;2.25;;;9.30;99.90;;;;;;3623422;39;20299;-75
2020/12/24 03:16:00;;;;;;;10.18;2.47;;;9.30;99.90;;;;;;3622153;39;20392;-75
2020/12/24 03:18:26;;;;;;;13.50;2.38;;;9.30;99.90;;;;;;3619004;39;20279;-75
2020/12/24 03:20:53;;;;;;;8.63;1.85;;;9.30;99.90;;;;;;3626892;39;20271;-75
2020/12/24 03:23:19;;;;;;;14.23;2.25;;;9.30;99.90;;;;;;3620152;39;20800;-75
2020/12/24 03:25:45;;;;;;;6.00;1.80;;;9.40;99.90;;;;;;3620672;39;20671;-75
2020/12/24 03:28:12;;;;;;;6.28;1.50;;;9.50;99.90;;;;;;3621794;39;20368;-75
2020/12/24 03:30:39;;;;;;;15.82;2.60;;;9.40;99.90;;;;;;3640439;32;20294;-74
2020/12/24 03:33:06;;;;;;;7.05;1.70;;;9.50;99.90;;;;;;3619575;39;20277;-75
2020/12/24 03:35:32;;;;;;;14.65;2.63;;;9.50;99.90;;;;;;3620029;39;20275;-75
2020/12/24 03:37:59;;;;;;;10.65;1.90;;;9.50;99.90;;;;;;3619934;39;20271;-75
2020/12/24 03:40:25;;;;;;;7.25;1.48;;;9.50;99.90;;;;;;3623653;39;20265;-75
2020/12/24 03:42:52;;;;;;;14.85;1.98;;;9.40;99.90;;;;;;3619996;39;20867;-74
2020/12/24 03:45:18;;;;;;;10.60;1.67;;;9.40;99.90;;;;;;3621977;39;20236;-75
2020/12/24 03:47:46;;;;;;;5.55;1.40;;;9.40;99.90;;;;;;3621863;39;20243;-75
2020/12/24 03:50:12;;;;;;;10.65;3.35;;;9.40;99.90;;;;;;3622198;39;20283;-75
2020/12/24 03:52:39;;;;;;;13.45;2.40;;;9.40;99.90;;;;;;3621896;39;20885;-75
2020/12/24 03:55:05;;;;;;;6.00;1.88;;;9.40;99.90;;;;;;3621984;39;20995;-76
2020/12/24 03:57:32;;;;;;;7.40;1.52;;;9.40;99.90;;;;;;3625185;39;20303;-75
2020/12/24 03:59:58;;;;;;;8.70;1.63;;;9.50;99.90;;;;;;3622030;39;20278;-75
2020/12/24 04:02:25;;;;;;;7.65;1.85;;;9.40;99.90;;;;;;3622357;39;20240;-75
2020/12/24 04:04:52;;;;;;;10.85;2.28;;;9.50;99.90;;;;;;3623962;39;20251;-75
2020/12/24 04:07:19;;;;;;;7.03;1.80;;;9.40;99.90;;;;;;3638072;32;20275;-75
2020/12/24 04:09:46;;;;;;;11.13;2.22;;;9.40;99.90;;;;;;3626970;39;20294;-74
2020/12/24 04:12:13;;;;;;;5.55;1.52;;;9.40;99.90;;;;;;3623678;39;20871;-75
2020/12/24 04:14:39;;;;;;;10.55;1.90;;;9.40;99.90;;;;;;3621776;39;20333;-75
2020/12/24 04:17:06;;;;;;;6.63;1.33;;;9.40;99.90;;;;;;3621890;39;20286;-75
2020/12/24 04:19:32;;;;;;;9.82;1.63;;;9.30;99.90;;;;;;3629107;39;20260;-75
2020/12/24 04:22:00;;;;;;;3.08;0.95;;;9.30;99.90;;;;;;3637215;31;20267;-75
2020/12/24 04:24:26;;;;;;;4.40;1.42;;;9.30;99.90;;;;;;3621110;39;20267;-75
2020/12/24 04:26:55;;;;;;;8.45;2.20;;;9.30;99.90;;;;;;3624931;39;20758;-75
2020/12/24 04:29:22;;;;;;;5.90;1.45;;;9.30;99.90;;;;;;3621783;39;20256;-75
2020/12/24 04:31:48;;;;;;;5.47;1.33;;;9.40;99.90;;;;;;3621892;39;20283;-75
2020/12/24 04:34:15;;;;;;;3.60;1.20;;;9.30;99.90;;;;;;3622222;39;20286;-75
2020/12/24 04:36:41;;;;;;;12.90;1.80;;;9.40;99.90;;;;;;3621410;39;20344;-75
2020/12/24 04:39:08;;;;;;;7.13;1.70;;;9.40;99.90;;;;;;3623975;39;20752;-75
2020/12/24 04:41:35;;;;;;;5.30;2.05;;;9.40;99.90;;;;;;3624767;39;20248;-75
2020/12/24 04:44:02;;;;;;;9.80;2.05;;;9.40;99.90;;;;;;3621326;39;20847;-75
2020/12/24 04:46:32;;;;;;;8.27;2.10;;;9.40;99.90;;;;;;3625066;39;20252;-75
2020/12/24 04:48:59;;;;;;;5.60;1.73;;;9.30;99.90;;;;;;3622135;39;20290;-75
2020/12/24 04:51:26;;;;;;;11.93;2.15;;;9.30;99.90;;;;;;3621271;39;20757;-76
2020/12/24 04:53:53;;;;;;;5.47;2.17;;;9.20;99.90;;;;;;3621202;39;20252;-75
2020/12/24 04:56:20;;;;;;;6.95;2.25;;;9.30;99.90;;;;;;3621595;39;20240;-75
2020/12/24 04:58:47;;;;;;;8.85;1.70;;;9.20;99.90;;;;;;3622164;39;20669;-75
2020/12/24 05:01:15;;;;;;;7.53;2.05;;;9.20;99.90;;;;;;3645853;31;20236;-75
2020/12/24 05:03:42;;;;;;;9.75;1.30;;;9.20;99.90;;;;;;3622474;39;20252;-75
2020/12/24 05:06:15;;;;;;;10.88;2.10;;;9.20;99.90;;;;;;3623889;39;20237;-75
2020/12/24 05:08:53;;;;;;;7.07;1.67;;;9.20;99.90;;;;;;3620697;39;20248;-75
2020/12/24 05:11:27;;;;;;;7.63;2.05;;;9.20;99.90;;;;;;3633011;32;20266;-75
2020/12/24 05:13:56;;;;;;;7.25;2.75;;;9.20;99.90;;;;;;3642288;32;20275;-75
2020/12/24 05:16:28;;;;;;;5.88;1.50;;;9.20;99.90;;;;;;3623708;39;20248;-75
2020/12/24 05:18:56;;;;;;;4.05;1.58;;;9.20;99.90;;;;;;3621038;39;20776;-75
2020/12/24 05:21:33;;;;;;;12.13;2.17;;;9.20;99.90;;;;;;3623731;39;20380;-75
2020/12/24 05:23:59;;;;;;;3.88;2.05;;;9.10;99.90;;;;;;3623364;39;20279;-75
2020/12/24 05:26:31;;;;;;;8.50;1.73;;;9.10;99.90;;;;;;3620582;39;20263;-75
2020/12/24 05:29:12;;;;;;;8.60;3.67;;;9.00;99.90;;;;;;3621790;39;20275;-76
2020/12/24 05:31:54;;;;;;;9.35;2.00;;;8.90;99.90;;;;;;3620154;39;20271;-75
2020/12/24 05:34:21;;;;;;;7.90;1.85;;;8.90;99.90;;;;;;3620730;39;20760;-75
2020/12/24 05:36:48;;;;;;;7.20;1.60;;;8.90;99.90;;;;;;3623136;39;20255;-75
2020/12/24 05:39:15;;;;;;;13.18;2.10;;;8.90;99.90;;;;;;3623838;39;20279;-75
2020/12/24 05:41:44;;;;;;;6.88;1.42;;;8.90;99.90;;;;;;3626736;39;20285;-76
2020/12/24 05:44:12;;;;;;;7.43;1.25;;;8.90;99.90;;;;;;3620792;39;20255;-75
2020/12/24 05:46:46;;;;;;;10.48;2.00;;;8.90;99.90;;;;;;3620713;39;20255;-75
2020/12/24 05:49:17;;;;;;;8.80;1.60;;;9.00;99.90;;;;;;3623388;39;20283;-75
2020/12/24 05:51:52;;;;;;;9.90;2.22;;;9.00;99.90;;;;;;3620930;39;20244;-75
2020/12/24 05:54:19;;;;;;;6.13;1.35;;;9.00;99.90;;;;;;3620857;39;20391;-75
2020/12/24 05:56:53;;;;;;;2.78;1.30;;;8.90;99.90;;;;;;3620218;39;20252;-75
2020/12/24 05:59:24;;;;;;;14.48;2.35;;;8.90;99.90;;;;;;3621901;39;20830;-75
2020/12/24 06:02:00;;;;;;;6.38;1.67;;;8.90;99.90;;;;;;3626363;39;20278;-76
2020/12/24 06:04:46;;;;;;;3.75;1.85;;;9.00;99.90;;;;;;3620502;39;20264;-75
2020/12/24 06:07:14;;;;;;;12.00;2.70;;;9.00;99.90;;;;;;3623365;32;20295;-74
2020/12/24 06:09:42;;;;;;;7.43;1.60;;;9.10;99.90;;;;;;3620301;39;20351;-75
2020/12/24 06:12:18;;;;;;;6.45;1.55;;;9.20;99.90;;;;;;3623867;39;20614;-75
2020/12/24 06:14:47;;;;;;;8.18;1.58;;;9.30;99.90;;;;;;3620463;39;20248;-75
2020/12/24 06:17:14;;;;;;;7.00;1.73;;;9.30;99.90;;;;;;3624573;31;20391;-74
2020/12/24 06:19:41;;;;;;;5.28;1.92;;;9.40;99.90;;;;;;3624199;39;20780;-74
2020/12/24 06:22:08;;;;;;;11.85;1.67;;;9.40;99.90;;;;;;3620165;39;20269;-75
2020/12/24 06:24:40;;;;;;;2.97;1.40;;;9.50;99.90;;;;;;3620701;39;20255;-75
2020/12/24 06:27:14;;;;;;;11.45;1.90;;;9.50;99.90;;;;;;3620639;39;20282;-75
2020/12/24 06:29:45;;;;;;;4.90;2.08;;;9.50;99.90;;;;;;3620662;39;20254;-75
2020/12/24 06:32:12;;;;;;;10.88;2.28;;;9.50;99.90;;;;;;3620382;39;20248;-75
2020/12/24 06:34:41;;;;;;;15.95;2.38;;;9.50;99.90;;;;;;3630753;31;20260;-75
2020/12/24 06:37:17;;;;;;;7.05;2.22;;;9.50;99.90;;;;;;3621079;39;20291;-75
2020/12/24 06:39:54;;;;;;;12.95;2.42;;;9.40;99.90;;;;;;3621869;32;20291;-75
2020/12/24 06:42:42;;;;;;;5.00;1.90;;;9.40;99.90;;;;;;3620664;39;20286;-75
2020/12/24 06:45:22;;;;;;;9.73;1.65;;;9.30;99.90;;;;;;3623561;39;20282;-75
2020/12/24 06:48:14;;;;;;;10.07;1.85;;;9.30;99.90;;;;;;3621997;39;20355;-75
2020/12/24 06:50:42;;;;;;;4.50;1.45;;;9.30;99.90;;;;;;3624065;39;20251;-75
2020/12/24 06:53:23;;;;;;;12.20;2.78;;;9.40;99.90;;;;;;3620413;39;20355;-75
2020/12/24 06:56:23;;;;;;;5.38;1.70;;;9.50;99.90;;;;;;3624689;39;20259;-75
2020/12/24 06:58:56;;;;;;;7.28;1.73;;;9.50;99.90;;;;;;3617661;39;20300;-75
2020/12/24 07:01:26;;;;;;;9.23;1.30;;;9.50;99.90;;;;;;3622997;39;20260;-74
2020/12/24 07:03:56;;;;;;;7.97;1.48;;;9.60;99.90;;;;;;3626570;32;20282;-75
2020/12/24 07:06:55;;;;;;;7.65;1.60;;;9.50;99.90;;;;;;3623604;39;20355;-75
2020/12/24 07:09:44;;;;;;;8.32;2.50;;;9.50;99.90;;;;;;3620362;39;20256;-75
2020/12/24 07:12:26;;;;;;;11.02;2.28;;;9.40;99.90;;;;;;3620149;39;20256;-75
2020/12/24 07:14:54;;;;;;;5.97;1.23;;;9.40;99.90;;;;;;3620106;39;20395;-75
2020/12/24 07:17:23;;;;;;;12.95;3.03;;;9.40;99.90;;;;;;3623275;39;20268;-75
2020/12/24 07:19:58;;;;;;;8.20;1.80;;;9.40;99.90;;;;;;3624990;39;20620;-75
2020/12/24 07:22:32;;;;;;;10.20;2.15;;;9.50;99.90;;;;;;3622881;39;20278;-75
2020/12/24 07:25:00;;;;;;;10.27;2.17;;;9.60;99.90;;;;;;3622246;39;20298;-75
2020/12/24 07:27:27;;;;;;;6.05;1.67;;;9.60;99.90;;;;;;3625633;39;20347;-75
2020/12/24 07:29:59;;;;;;;11.10;2.50;;;9.60;99.90;;;;;;3626182;39;20251;-75
2020/12/24 07:32:36;;;;;;;12.35;2.28;;;9.60;99.90;;;;;;3622433;39;20106;-75
2020/12/24 07:35:03;;;;;;;5.30;1.67;;;9.60;99.90;;;;;;3624090;39;20294;-75
2020/12/24 07:37:38;;;;;;;12.88;2.10;;;9.60;99.90;;;;;;3623871;39;20256;-75
2020/12/24 07:40:10;;;;;;;12.65;2.03;;;9.70;99.90;;;;;;3622178;39;20332;-76
2020/12/24 07:42:37;;;;;;;6.97;2.20;;;9.80;99.90;;;;;;3626171;31;20287;-75
2020/12/24 07:45:04;;;;;;;6.78;2.20;;;9.90;99.90;;;;;;3624347;32;20256;-75
2020/12/24 07:47:31;;;;;;;9.02;2.05;;;9.90;99.90;;;;;;3625757;39;20264;-77
2020/12/24 07:50:05;;;;;;;4.57;2.08;;;9.70;99.90;;;;;;3622902;31;20244;-75
2020/12/24 07:52:34;;;;;;;2.03;1.85;;;9.50;99.90;;;;;;3649082;31;20276;-76
2020/12/24 07:55:09;;;;;;;1.13;0.90;;;9.20;99.90;;;;;;3621592;39;20252;-76
2020/12/24 07:57:35;;;;;;;1.00;1.00;;;8.70;99.90;;;;;;3622585;39;20278;-75
2020/12/24 08:00:06;;;;;;;1.05;1.05;;;8.20;99.90;;;;;;3623413;39;20240;-75
2020/12/24 08:02:37;;;;;;;1.98;1.00;;;7.80;99.90;;;;;;3628611;39;20293;-75
2020/12/24 08:05:15;;;;;;;1.40;1.30;;;7.50;99.90;;;;;;3623983;32;20283;-76
2020/12/24 08:07:44;;;;;;;1.17;1.13;;;7.30;99.90;;;;;;3624391;39;20826;-76
2020/12/24 08:10:13;;;;;;;1.58;1.48;;;7.10;99.90;;;;;;3623602;39;20291;-76
2020/12/24 08:12:43;;;;;;;1.45;1.45;;;6.90;99.90;;;;;;3624251;39;20243;-75
2020/12/24 08:15:23;;;;;;;1.10;1.10;;;6.70;99.90;;;;;;3625150;39;20282;-76
2020/12/24 08:18:06;;;;;;;1.90;1.80;;;6.60;99.90;;;;;;3625527;39;20266;-76
2020/12/24 08:20:47;;;;;;;1.52;1.42;;;6.50;99.90;;;;;;3625091;39;20252;-75
2020/12/24 08:23:25;;;;;;;1.10;1.00;;;6.30;99.90;;;;;;3631446;31;20349;-75
2020/12/24 08:25:55;;;;;;;1.40;1.30;;;6.10;99.90;;;;;;3624398;39;20287;-76
2020/12/24 08:28:22;;;;;;;1.33;1.23;;;5.90;99.90;;;;;;3622015;39;20275;-76
2020/12/24 08:30:50;;;;;;;1.80;1.70;;;5.80;99.90;;;;;;3621662;39;20279;-76
2020/12/24 08:33:18;;;;;;;1.95;1.85;;;5.70;99.90;;;;;;3623556;39;20276;-75
2020/12/24 08:35:45;;;;;;;2.20;2.10;;;5.70;99.90;;;;;;3621624;39;20252;-76
2020/12/24 08:38:15;;;;;;;1.85;1.75;;;5.60;99.90;;;;;;3621948;39;20255;-76
2020/12/24 08:40:42;;;;;;;1.65;1.55;;;5.50;99.90;;;;;;3621418;39;20929;-76
2020/12/24 08:43:11;;;;;;;2.17;2.08;;;5.50;99.90;;;;;;3621156;39;20279;-75
2020/12/24 08:45:44;;;;;;;2.17;2.08;;;5.50;99.90;;;;;;3628334;39;20299;-75
2020/12/24 08:48:11;;;;;;;4.55;1.67;;;5.50;99.90;;;;;;3623256;39;20278;-76
2020/12/24 08:50:40;;;;;;;1.98;1.88;;;5.50;99.90;;;;;;3621388;39;20259;-75
2020/12/24 08:53:21;;;;;;;2.38;2.28;;;5.60;99.90;;;;;;3623330;39;20279;-75
2020/12/24 08:55:47;;;;;;;2.15;2.05;;;5.70;99.90;;;;;;3621291;39;20248;-76
2020/12/24 08:58:14;;;;;;;2.25;2.10;;;5.70;99.90;;;;;;3625252;39;20724;-76
2020/12/24 09:00:40;;;;;;;2.15;2.05;;;5.70;99.90;;;;;;3621326;39;20256;-75
2020/12/24 09:03:22;;;;;;;2.33;2.13;;;5.70;99.90;;;;;;3626819;39;20307;-76
2020/12/24 09:05:49;;;;;;;1.80;1.70;;;5.80;99.90;;;;;;3621343;39;20278;-76
2020/12/24 09:08:24;;;;;;;1.92;1.83;;;5.70;99.90;;;;;;3625274;39;20271;-75
2020/12/24 09:10:51;;;;;;;1.90;1.80;;;5.70;99.90;;;;;;3624103;39;20381;-76
2020/12/24 09:13:20;;;;;;;1.83;1.73;;;5.60;99.90;;;;;;3621673;39;20267;-76
2020/12/24 09:15:47;;;;;;;1.88;1.73;;;5.60;99.90;;;;;;3621504;39;20317;-75
2020/12/24 09:18:16;;;;;;;3.08;1.60;;;5.70;99.90;;;;;;3620963;39;20313;-75
2020/12/24 09:20:42;;;;;;;1.52;1.42;;;5.70;99.90;;;;;;3624422;39;20299;-75
2020/12/24 09:23:12;;;;;;;2.50;1.98;;;5.80;99.90;;;;;;3621262;39;20266;-76
2020/12/24 09:25:41;;;;;;;2.20;2.00;;;5.90;99.90;;;;;;3620715;39;20267;-76
2020/12/24 09:28:20;;;;;;;1.90;1.80;;;5.90;99.90;;;;;;3623799;39;20276;-76
2020/12/24 09:30:46;;;;;;;2.45;1.60;;;6.00;99.90;;;;;;3621216;39;20283;-75
2020/12/24 09:33:13;;;;;;;2.10;1.90;;;6.10;99.90;;;;;;3624501;39;20256;-76
2020/12/24 09:35:40;;;;;;;3.25;2.10;;;6.10;99.90;;;;;;3623838;39;20289;-76
2020/12/24 09:38:06;;;;;;;2.20;2.10;;;6.20;99.90;;;;;;3624827;39;20240;-75
2020/12/24 09:40:34;;;;;;;2.00;1.90;;;6.20;99.90;;;;;;3622285;39;20259;-75
2020/12/24 09:43:01;;;;;;;2.05;1.95;;;6.30;99.90;;;;;;3625053;39;20260;-75
2020/12/24 09:45:28;;;;;;;2.38;1.90;;;6.40;99.90;;;;;;3620535;39;20244;-76
2020/12/24 09:47:55;;;;;;;2.05;1.95;;;6.40;99.90;;;;;;3631479;31;20304;-76
2020/12/24 09:50:22;;;;;;;2.65;1.98;;;6.50;99.90;;;;;;3623018;39;20340;-75
2020/12/24 09:52:49;;;;;;;2.00;1.90;;;6.60;99.90;;;;;;3621443;39;20252;-75
2020/12/24 09:55:16;;;;;;;2.72;2.15;;;6.60;99.90;;;;;;3621456;39;20263;-75
2020/12/24 09:57:43;;;;;;;3.35;1.70;;;6.70;99.90;;;;;;3622791;39;20289;-76
2020/12/24 10:00:11;;;;;;;3.60;2.10;;;6.80;99.90;;;;;;3622939;39;20269;-75
2020/12/24 10:02:38;;;;;;;2.55;2.10;;;6.70;99.90;;;;;;3623427;39;20247;-76
2020/12/24 10:05:06;;;;;;;2.10;1.90;;;6.70;99.90;;;;;;3622119;39;20331;-75
2020/12/24 10:07:33;;;;;;;2.78;2.28;;;6.70;99.90;;;;;;3620628;39;20352;-75
2020/12/24 10:10:00;;;;;;;4.88;2.38;;;6.80;99.90;;;;;;3620476;39;20284;-75
2020/12/24 10:12:28;;;;;;;2.25;2.15;;;6.80;99.90;;;;;;3627539;39;20268;-75
2020/12/24 10:14:56;;;;;;;2.45;2.33;;;6.90;99.90;;;;;;3624392;39;20391;-76
2020/12/24 10:17:24;;;;;;;5.38;3.35;;;6.80;99.90;;;;;;3620185;39;20293;-75
2020/12/24 10:19:53;;;;;;;2.95;2.63;;;6.80;99.90;;;;;;3623807;39;20368;-75
2020/12/24 10:22:19;;;;;;;2.53;2.30;;;6.80;99.90;;;;;;3623093;39;20349;-75
2020/12/24 10:24:46;;;;;;;2.40;2.20;;;6.70;99.90;;;;;;3620381;39;20237;-76
2020/12/24 10:27:13;;;;;;;3.90;2.80;;;6.70;99.90;;;;;;3621391;39;20270;-76
2020/12/24 10:29:40;;;;;;;2.70;2.30;;;6.70;99.90;;;;;;3620356;39;20324;-76
2020/12/24 10:32:07;;;;;;;1.85;1.75;;;6.80;99.90;;;;;;3620153;39;20259;-75
2020/12/24 10:34:34;;;;;;;2.35;2.17;;;6.70;99.90;;;;;;3622490;39;20252;-75
2020/12/24 10:37:01;;;;;;;2.40;2.30;;;6.70;99.90;;;;;;3620261;39;20780;-76
2020/12/24 10:39:28;;;;;;;2.28;2.17;;;6.70;99.90;;;;;;3620568;39;20283;-76
2020/12/24 10:41:54;;;;;;;1.73;1.63;;;6.70;99.90;;;;;;3624988;39;20255;-75
2020/12/24 10:44:21;;;;;;;2.10;2.00;;;6.90;99.90;;;;;;3621971;39;20416;-76
2020/12/24 10:46:48;;;;;;;2.20;2.00;;;6.90;99.90;;;;;;3622563;39;20256;-76
2020/12/24 10:49:15;;;;;;;1.83;1.73;;;7.00;99.90;;;;;;3621142;39;20352;-76
2020/12/24 10:51:43;;;;;;;1.80;1.70;;;7.00;99.90;;;;;;3623243;39;20263;-76
2020/12/24 10:54:10;;;;;;;2.03;1.92;;;7.10;99.90;;;;;;3623069;39;20289;-75
2020/12/24 10:56:36;;;;;;;3.25;1.88;;;7.10;99.90;;;;;;3620819;39;20336;-75
2020/12/24 10:59:03;;;;;;;2.25;2.15;;;7.10;99.90;;;;;;3625119;39;20263;-75
2020/12/24 11:24:10;;;;;;;3.60;3.30;;;7.00;99.90;;;;;;3652510;31;20286;-74
2020/12/24 11:26:37;;;;;;;3.85;3.40;;;6.90;99.90;;;;;;3634256;39;20244;-75
2020/12/24 11:29:05;;;;;;;7.07;3.80;;;6.90;99.90;;;;;;3630001;39;20275;-74
2020/12/24 11:31:33;;;;;;;5.07;3.40;;;6.90;99.90;;;;;;3630152;39;20255;-74
2020/12/24 11:34:00;;;;;;;4.38;3.97;;;6.90;99.90;;;;;;3630388;39;20228;-74
2020/12/24 11:36:27;;;;;;;4.55;4.15;;;6.90;99.90;;;;;;3631687;39;20376;-74
2020/12/24 11:38:56;;;;;;;4.53;4.10;;;6.90;99.90;;;;;;3629913;39;20256;-74
2020/12/24 11:41:25;;;;;;;9.02;6.10;;;6.90;99.90;;;;;;3634380;39;20252;-74
2020/12/24 11:43:52;;;;;;;10.30;6.78;;;6.90;99.90;;;;;;3631764;39;20262;-74
2020/12/24 11:46:20;;;;;;;9.45;6.63;;;7.00;99.90;;;;;;3631087;39;20362;-74
2020/12/24 11:48:49;;;;;;;16.25;8.00;;;7.10;99.90;;;;;;3629936;39;20279;-74
2020/12/24 11:51:16;;;;;;;12.77;7.65;;;7.20;99.90;;;;;;3641452;31;20258;-74
2020/12/24 11:53:43;;;;;;;12.38;8.20;;;7.30;99.90;;;;;;3632478;39;20399;-74
2020/12/24 11:56:13;;;;;;;14.20;8.48;;;7.40;99.90;;;;;;3628133;39;20298;-75
2020/12/24 11:58:40;;;;;;;15.02;8.38;;;7.50;99.90;;;;;;3627988;39;20244;-75
2020/12/24 12:01:07;;;;;;;9.30;5.45;;;7.50;99.90;;;;;;3634214;39;20252;-75
2020/12/24 12:03:34;;;;;;;10.00;5.75;;;7.40;99.90;;;;;;3632984;39;20259;-75
2020/12/24 12:06:00;;;;;;;6.75;5.20;;;7.40;99.90;;;;;;3636869;39;20347;-75
2020/12/24 12:08:29;;;;;;;5.30;4.72;;;7.30;99.90;;;;;;3636949;39;20260;-76
2020/12/24 12:10:57;;;;;;;5.70;4.20;;;7.30;99.90;;;;;;3639190;31;20516;-75
2020/12/24 12:13:23;;;;;;;6.88;5.00;;;7.30;99.90;;;;;;3627973;39;20260;-75
2020/12/24 12:15:51;;;;;;;18.13;5.68;;;7.30;99.90;;;;;;3626190;39;20260;-75
2020/12/24 12:18:17;;;;;;;9.20;5.00;;;7.30;99.90;;;;;;3626152;39;20424;-75
2020/12/24 12:20:44;;;;;;;5.55;4.60;;;7.30;99.90;;;;;;3627230;39;20287;-75
2020/12/24 12:23:10;;;;;;;7.50;4.40;;;7.30;99.90;;;;;;3620803;39;20709;-75
2020/12/24 12:25:37;;;;;;;7.30;4.20;;;7.40;99.90;;;;;;3620714;39;20248;-75
2020/12/24 12:28:03;;;;;;;5.25;4.70;;;7.50;99.90;;;;;;3624851;39;20371;-76
2020/12/24 12:30:29;;;;;;;5.85;4.45;;;7.60;99.90;;;;;;3622367;39;20231;-75
2020/12/24 12:32:57;;;;;;;5.35;3.78;;;7.70;99.90;;;;;;3622655;39;20248;-74
2020/12/24 12:35:24;;;;;;;7.00;5.28;;;7.60;99.90;;;;;;3623113;39;20843;-77
2020/12/24 12:37:50;;;;;;;4.28;3.67;;;7.60;99.90;;;;;;3622259;39;20287;-75
2020/12/24 12:40:17;;;;;;;6.85;4.70;;;7.50;99.90;;;;;;3626826;39;20270;-75
2020/12/24 12:42:43;;;;;;;3.17;2.88;;;7.60;99.90;;;;;;3625942;39;20272;-75
2020/12/24 12:45:10;;;;;;;8.05;4.15;;;7.60;99.90;;;;;;3620187;39;20318;-75
2020/12/24 12:47:38;;;;;;;6.03;4.57;;;7.60;99.90;;;;;;3622342;39;20269;-75
2020/12/24 12:50:08;;;;;;;6.25;4.80;;;7.60;99.90;;;;;;3623527;39;20286;-75
2020/12/24 12:52:34;;;;;;;6.65;4.63;;;7.60;99.90;;;;;;3620274;39;20659;-75
2020/12/24 12:55:01;;;;;;;7.22;4.28;;;7.70;99.90;;;;;;3620536;39;20239;-75
2020/12/24 12:57:28;;;;;;;7.68;4.65;;;7.70;99.90;;;;;;3655859;32;20244;-75
2020/12/24 12:59:54;;;;;;;10.20;3.60;;;7.80;99.90;;;;;;3624852;39;20317;-75
2020/12/24 13:02:21;;;;;;;6.28;3.80;;;7.80;99.90;;;;;;3622730;39;20275;-75
2020/12/24 13:04:48;;;;;;;6.05;4.20;;;7.80;99.90;;;;;;3630519;39;20392;-75
2020/12/24 13:07:15;;;;;;;5.43;2.67;;;7.80;99.90;;;;;;3623657;39;20301;-75
2020/12/24 13:09:41;;;;;;;5.78;3.00;;;7.90;99.90;;;;;;3627566;39;20285;-75
2020/12/24 13:12:08;;;;;;;5.85;2.95;;;7.80;99.90;;;;;;3623050;39;20258;-75
2020/12/24 13:14:34;;;;;;;6.93;3.25;;;7.90;99.90;;;;;;3624710;39;20301;-75
2020/12/24 13:17:01;;;;;;;5.43;4.03;;;7.90;99.90;;;;;;3621515;39;20264;-75
2020/12/24 13:19:27;;;;;;;7.50;5.10;;;7.90;99.90;;;;;;3619112;39;20335;-75
2020/12/24 13:21:54;;;;;;;6.72;4.10;;;8.00;99.90;;;;;;3623766;39;20276;-75
2020/12/24 13:24:23;;;;;;;7.45;3.75;;;8.10;99.90;;;;;;3623747;39;20283;-75
2020/12/24 13:26:53;;;;;;;6.45;3.83;;;8.10;99.90;;;;;;3625412;39;20251;-75